sensor_id;sensor_type;location;lat;lon;timestamp;P1;durP1;ratioP1;P2;durP2;ratioP2
54835;SDS011;43486;43.574;1.476;2023-12-07T00:00:59;12.32;;;6.85;;
54835;SDS011;43486;43.574;1.476;2023-12-07T00:03:25;11.93;;;7.10;;
54835;SDS011;43486;43.574;1.476;2023-12-07T00:05:50;14.88;;;6.50;;
54835;SDS011;43486;43.574;1.476;2023-12-07T00:08:15;19.05;;;5.50;;
54835;SDS011;43486;43.574;1.476;2023-12-07T00:10:40;12.93;;;6.22;;
54835;SDS011;43486;43.574;1.476;2023-12-07T00:13:06;13.75;;;6.03;;
54835;SDS011;43486;43.574;1.476;2023-12-07T00:15:31;9.38;;;5.60;;
54835;SDS011;43486;43.574;1.476;2023-12-07T00:17:57;13.05;;;5.65;;
54835;SDS011;43486;43.574;1.476;2023-12-07T00:20:22;11.48;;;6.53;;
54835;SDS011;43486;43.574;1.476;2023-12-07T00:22:47;10.65;;;5.90;;
54835;SDS011;43486;43.574;1.476;2023-12-07T00:25:13;9.40;;;5.80;;
54835;SDS011;43486;43.574;1.476;2023-12-07T00:27:38;11.07;;;6.05;;
54835;SDS011;43486;43.574;1.476;2023-12-07T00:30:03;10.52;;;5.82;;
54835;SDS011;43486;43.574;1.476;2023-12-07T00:32:29;8.68;;;5.97;;
54835;SDS011;43486;43.574;1.476;2023-12-07T00:34:55;8.93;;;5.15;;
54835;SDS011;43486;43.574;1.476;2023-12-07T00:37:20;11.02;;;6.43;;
54835;SDS011;43486;43.574;1.476;2023-12-07T00:39:45;14.73;;;7.28;;
54835;SDS011;43486;43.574;1.476;2023-12-07T00:42:11;11.68;;;6.55;;
54835;SDS011;43486;43.574;1.476;2023-12-07T00:44:39;12.70;;;5.90;;
54835;SDS011;43486;43.574;1.476;2023-12-07T00:47:05;9.60;;;5.68;;
54835;SDS011;43486;43.574;1.476;2023-12-07T00:49:31;14.07;;;5.90;;
54835;SDS011;43486;43.574;1.476;2023-12-07T00:51:56;9.38;;;6.78;;
54835;SDS011;43486;43.574;1.476;2023-12-07T00:54:22;10.25;;;6.28;;
54835;SDS011;43486;43.574;1.476;2023-12-07T00:56:48;10.52;;;6.43;;
54835;SDS011;43486;43.574;1.476;2023-12-07T00:59:13;9.43;;;6.45;;
54835;SDS011;43486;43.574;1.476;2023-12-07T01:01:38;10.45;;;6.35;;
54835;SDS011;43486;43.574;1.476;2023-12-07T01:04:04;11.48;;;5.53;;
54835;SDS011;43486;43.574;1.476;2023-12-07T01:06:30;9.43;;;5.32;;
54835;SDS011;43486;43.574;1.476;2023-12-07T01:08:56;14.40;;;7.22;;
54835;SDS011;43486;43.574;1.476;2023-12-07T01:11:22;10.25;;;5.47;;
54835;SDS011;43486;43.574;1.476;2023-12-07T01:13:47;9.18;;;4.90;;
54835;SDS011;43486;43.574;1.476;2023-12-07T01:16:12;11.15;;;5.22;;
54835;SDS011;43486;43.574;1.476;2023-12-07T01:18:38;13.25;;;5.35;;
54835;SDS011;43486;43.574;1.476;2023-12-07T01:21:03;8.05;;;5.82;;
54835;SDS011;43486;43.574;1.476;2023-12-07T01:23:29;7.80;;;5.00;;
54835;SDS011;43486;43.574;1.476;2023-12-07T01:32:38;8.48;;;5.20;;
54835;SDS011;43486;43.574;1.476;2023-12-07T01:35:03;12.43;;;5.32;;
54835;SDS011;43486;43.574;1.476;2023-12-07T01:37:29;7.53;;;4.90;;
54835;SDS011;43486;43.574;1.476;2023-12-07T01:39:55;10.52;;;6.25;;
54835;SDS011;43486;43.574;1.476;2023-12-07T01:42:21;9.48;;;5.65;;
54835;SDS011;43486;43.574;1.476;2023-12-07T01:44:46;8.70;;;5.32;;
54835;SDS011;43486;43.574;1.476;2023-12-07T01:47:11;11.38;;;5.80;;
54835;SDS011;43486;43.574;1.476;2023-12-07T01:49:37;8.10;;;4.95;;
54835;SDS011;43486;43.574;1.476;2023-12-07T01:52:03;10.65;;;5.75;;
54835;SDS011;43486;43.574;1.476;2023-12-07T01:54:29;10.05;;;5.85;;
54835;SDS011;43486;43.574;1.476;2023-12-07T01:56:54;11.85;;;5.30;;
54835;SDS011;43486;43.574;1.476;2023-12-07T01:59:21;10.90;;;5.70;;
54835;SDS011;43486;43.574;1.476;2023-12-07T02:01:46;8.48;;;4.93;;
54835;SDS011;43486;43.574;1.476;2023-12-07T02:04:12;10.43;;;6.15;;
54835;SDS011;43486;43.574;1.476;2023-12-07T02:06:37;8.25;;;5.40;;
54835;SDS011;43486;43.574;1.476;2023-12-07T02:09:03;11.45;;;5.03;;
54835;SDS011;43486;43.574;1.476;2023-12-07T02:11:28;15.65;;;5.57;;
54835;SDS011;43486;43.574;1.476;2023-12-07T02:13:54;8.40;;;5.32;;
54835;SDS011;43486;43.574;1.476;2023-12-07T02:16:25;10.60;;;6.45;;
54835;SDS011;43486;43.574;1.476;2023-12-07T02:18:59;9.65;;;5.85;;
54835;SDS011;43486;43.574;1.476;2023-12-07T02:21:46;10.48;;;5.07;;
54835;SDS011;43486;43.574;1.476;2023-12-07T02:24:13;11.82;;;5.97;;
54835;SDS011;43486;43.574;1.476;2023-12-07T02:26:42;13.15;;;6.32;;
54835;SDS011;43486;43.574;1.476;2023-12-07T02:29:08;8.45;;;5.20;;
54835;SDS011;43486;43.574;1.476;2023-12-07T02:31:33;8.60;;;5.03;;
54835;SDS011;43486;43.574;1.476;2023-12-07T02:33:59;8.30;;;5.05;;
54835;SDS011;43486;43.574;1.476;2023-12-07T02:36:24;10.88;;;6.03;;
54835;SDS011;43486;43.574;1.476;2023-12-07T02:38:53;9.48;;;5.03;;
54835;SDS011;43486;43.574;1.476;2023-12-07T02:41:21;7.20;;;4.22;;
54835;SDS011;43486;43.574;1.476;2023-12-07T02:43:47;8.50;;;5.90;;
54835;SDS011;43486;43.574;1.476;2023-12-07T02:46:12;8.93;;;5.38;;
54835;SDS011;43486;43.574;1.476;2023-12-07T02:48:38;15.10;;;6.45;;
54835;SDS011;43486;43.574;1.476;2023-12-07T02:51:03;10.15;;;4.72;;
54835;SDS011;43486;43.574;1.476;2023-12-07T02:53:29;10.18;;;5.35;;
54835;SDS011;43486;43.574;1.476;2023-12-07T02:55:54;8.20;;;4.63;;
54835;SDS011;43486;43.574;1.476;2023-12-07T02:58:19;7.20;;;4.72;;
54835;SDS011;43486;43.574;1.476;2023-12-07T03:00:47;8.57;;;5.05;;
54835;SDS011;43486;43.574;1.476;2023-12-07T03:03:12;8.25;;;5.00;;
54835;SDS011;43486;43.574;1.476;2023-12-07T03:05:38;7.78;;;4.68;;
54835;SDS011;43486;43.574;1.476;2023-12-07T03:08:03;14.05;;;5.60;;
54835;SDS011;43486;43.574;1.476;2023-12-07T03:10:28;10.23;;;4.93;;
54835;SDS011;43486;43.574;1.476;2023-12-07T03:12:54;7.95;;;4.28;;
54835;SDS011;43486;43.574;1.476;2023-12-07T03:15:19;10.60;;;6.15;;
54835;SDS011;43486;43.574;1.476;2023-12-07T03:17:45;9.48;;;4.88;;
54835;SDS011;43486;43.574;1.476;2023-12-07T03:20:10;7.38;;;4.13;;
54835;SDS011;43486;43.574;1.476;2023-12-07T03:22:36;12.77;;;4.85;;
54835;SDS011;43486;43.574;1.476;2023-12-07T03:25:01;7.75;;;4.40;;
54835;SDS011;43486;43.574;1.476;2023-12-07T03:27:27;8.77;;;5.18;;
54835;SDS011;43486;43.574;1.476;2023-12-07T03:29:53;14.75;;;5.82;;
54835;SDS011;43486;43.574;1.476;2023-12-07T03:32:19;7.10;;;4.55;;
54835;SDS011;43486;43.574;1.476;2023-12-07T03:34:44;8.13;;;4.45;;
54835;SDS011;43486;43.574;1.476;2023-12-07T03:37:10;9.98;;;4.85;;
54835;SDS011;43486;43.574;1.476;2023-12-07T03:39:35;6.20;;;3.53;;
54835;SDS011;43486;43.574;1.476;2023-12-07T03:42:00;6.10;;;4.07;;
54835;SDS011;43486;43.574;1.476;2023-12-07T03:44:26;6.95;;;4.35;;
54835;SDS011;43486;43.574;1.476;2023-12-07T03:46:51;7.82;;;4.28;;
54835;SDS011;43486;43.574;1.476;2023-12-07T03:49:17;8.52;;;4.40;;
54835;SDS011;43486;43.574;1.476;2023-12-07T03:51:43;7.68;;;4.47;;
54835;SDS011;43486;43.574;1.476;2023-12-07T03:54:08;7.07;;;3.58;;
54835;SDS011;43486;43.574;1.476;2023-12-07T03:56:33;6.40;;;3.65;;
54835;SDS011;43486;43.574;1.476;2023-12-07T03:58:59;8.80;;;4.82;;
54835;SDS011;43486;43.574;1.476;2023-12-07T04:01:25;10.43;;;4.75;;
54835;SDS011;43486;43.574;1.476;2023-12-07T04:03:51;7.38;;;4.03;;
54835;SDS011;43486;43.574;1.476;2023-12-07T04:06:17;8.75;;;4.35;;
54835;SDS011;43486;43.574;1.476;2023-12-07T04:08:43;9.90;;;5.72;;
54835;SDS011;43486;43.574;1.476;2023-12-07T04:11:08;7.95;;;4.90;;
54835;SDS011;43486;43.574;1.476;2023-12-07T04:13:34;7.68;;;4.47;;
54835;SDS011;43486;43.574;1.476;2023-12-07T04:15:59;9.90;;;4.85;;
54835;SDS011;43486;43.574;1.476;2023-12-07T04:18:24;6.60;;;4.47;;
54835;SDS011;43486;43.574;1.476;2023-12-07T04:20:50;8.95;;;5.80;;
54835;SDS011;43486;43.574;1.476;2023-12-07T04:23:15;7.13;;;3.97;;
54835;SDS011;43486;43.574;1.476;2023-12-07T04:25:41;9.45;;;4.57;;
54835;SDS011;43486;43.574;1.476;2023-12-07T04:28:06;8.32;;;4.32;;
54835;SDS011;43486;43.574;1.476;2023-12-07T04:30:31;7.40;;;4.72;;
54835;SDS011;43486;43.574;1.476;2023-12-07T04:32:57;6.50;;;3.90;;
54835;SDS011;43486;43.574;1.476;2023-12-07T04:35:22;8.73;;;4.82;;
54835;SDS011;43486;43.574;1.476;2023-12-07T04:37:47;9.20;;;4.85;;
54835;SDS011;43486;43.574;1.476;2023-12-07T04:40:13;8.40;;;4.78;;
54835;SDS011;43486;43.574;1.476;2023-12-07T04:42:39;9.82;;;4.05;;
54835;SDS011;43486;43.574;1.476;2023-12-07T04:45:04;7.15;;;4.80;;
54835;SDS011;43486;43.574;1.476;2023-12-07T04:47:31;8.60;;;4.32;;
54835;SDS011;43486;43.574;1.476;2023-12-07T04:49:57;10.52;;;5.28;;
54835;SDS011;43486;43.574;1.476;2023-12-07T04:52:22;7.47;;;4.50;;
54835;SDS011;43486;43.574;1.476;2023-12-07T04:54:47;6.57;;;3.60;;
54835;SDS011;43486;43.574;1.476;2023-12-07T04:57:14;10.23;;;4.38;;
54835;SDS011;43486;43.574;1.476;2023-12-07T04:59:39;7.25;;;4.35;;
54835;SDS011;43486;43.574;1.476;2023-12-07T05:02:05;8.35;;;4.45;;
54835;SDS011;43486;43.574;1.476;2023-12-07T05:04:31;7.28;;;3.92;;
54835;SDS011;43486;43.574;1.476;2023-12-07T05:06:58;7.20;;;3.13;;
54835;SDS011;43486;43.574;1.476;2023-12-07T05:09:23;8.15;;;4.45;;
54835;SDS011;43486;43.574;1.476;2023-12-07T05:11:49;8.23;;;4.00;;
54835;SDS011;43486;43.574;1.476;2023-12-07T05:14:15;7.00;;;3.95;;
54835;SDS011;43486;43.574;1.476;2023-12-07T05:16:40;6.50;;;4.45;;
54835;SDS011;43486;43.574;1.476;2023-12-07T05:19:05;9.45;;;4.85;;
54835;SDS011;43486;43.574;1.476;2023-12-07T05:21:31;9.60;;;4.50;;
54835;SDS011;43486;43.574;1.476;2023-12-07T05:23:56;8.23;;;4.78;;
54835;SDS011;43486;43.574;1.476;2023-12-07T05:26:21;9.18;;;4.50;;
54835;SDS011;43486;43.574;1.476;2023-12-07T05:28:47;7.20;;;4.85;;
54835;SDS011;43486;43.574;1.476;2023-12-07T05:31:19;6.80;;;3.58;;
54835;SDS011;43486;43.574;1.476;2023-12-07T05:33:44;7.07;;;4.35;;
54835;SDS011;43486;43.574;1.476;2023-12-07T05:36:10;10.13;;;4.40;;
54835;SDS011;43486;43.574;1.476;2023-12-07T05:38:35;7.63;;;4.15;;
54835;SDS011;43486;43.574;1.476;2023-12-07T05:41:00;11.82;;;4.72;;
54835;SDS011;43486;43.574;1.476;2023-12-07T05:43:26;8.02;;;3.70;;
54835;SDS011;43486;43.574;1.476;2023-12-07T05:45:51;8.57;;;4.47;;
54835;SDS011;43486;43.574;1.476;2023-12-07T05:48:16;5.25;;;3.67;;
54835;SDS011;43486;43.574;1.476;2023-12-07T05:50:42;6.57;;;3.53;;
54835;SDS011;43486;43.574;1.476;2023-12-07T05:53:07;10.02;;;4.90;;
54835;SDS011;43486;43.574;1.476;2023-12-07T05:55:34;5.43;;;3.45;;
54835;SDS011;43486;43.574;1.476;2023-12-07T05:57:59;5.53;;;2.70;;
54835;SDS011;43486;43.574;1.476;2023-12-07T06:00:24;5.35;;;3.38;;
54835;SDS011;43486;43.574;1.476;2023-12-07T06:02:50;6.55;;;3.30;;
54835;SDS011;43486;43.574;1.476;2023-12-07T06:05:15;5.75;;;3.05;;
54835;SDS011;43486;43.574;1.476;2023-12-07T06:07:41;6.97;;;3.15;;
54835;SDS011;43486;43.574;1.476;2023-12-07T06:10:06;7.65;;;4.18;;
54835;SDS011;43486;43.574;1.476;2023-12-07T06:12:32;13.30;;;4.40;;
54835;SDS011;43486;43.574;1.476;2023-12-07T06:14:57;9.52;;;4.40;;
54835;SDS011;43486;43.574;1.476;2023-12-07T06:17:23;6.45;;;3.65;;
54835;SDS011;43486;43.574;1.476;2023-12-07T06:19:48;6.28;;;3.65;;
54835;SDS011;43486;43.574;1.476;2023-12-07T06:22:14;7.13;;;4.43;;
54835;SDS011;43486;43.574;1.476;2023-12-07T06:24:39;5.45;;;3.15;;
54835;SDS011;43486;43.574;1.476;2023-12-07T06:27:04;8.65;;;3.80;;
54835;SDS011;43486;43.574;1.476;2023-12-07T06:29:30;7.45;;;3.58;;
54835;SDS011;43486;43.574;1.476;2023-12-07T06:31:55;7.32;;;4.40;;
54835;SDS011;43486;43.574;1.476;2023-12-07T06:34:21;6.53;;;3.25;;
54835;SDS011;43486;43.574;1.476;2023-12-07T06:36:46;6.55;;;3.92;;
54835;SDS011;43486;43.574;1.476;2023-12-07T06:39:12;4.65;;;3.25;;
54835;SDS011;43486;43.574;1.476;2023-12-07T06:41:38;6.93;;;3.55;;
54835;SDS011;43486;43.574;1.476;2023-12-07T06:44:04;7.88;;;4.03;;
54835;SDS011;43486;43.574;1.476;2023-12-07T06:46:29;6.35;;;4.20;;
54835;SDS011;43486;43.574;1.476;2023-12-07T06:48:55;6.35;;;3.05;;
54835;SDS011;43486;43.574;1.476;2023-12-07T06:51:20;9.95;;;3.58;;
54835;SDS011;43486;43.574;1.476;2023-12-07T06:53:45;5.63;;;2.88;;
54835;SDS011;43486;43.574;1.476;2023-12-07T06:56:11;6.43;;;3.70;;
54835;SDS011;43486;43.574;1.476;2023-12-07T06:58:36;5.43;;;3.65;;
54835;SDS011;43486;43.574;1.476;2023-12-07T07:01:01;6.32;;;3.20;;
54835;SDS011;43486;43.574;1.476;2023-12-07T07:03:27;7.18;;;3.78;;
54835;SDS011;43486;43.574;1.476;2023-12-07T07:05:53;6.22;;;3.75;;
54835;SDS011;43486;43.574;1.476;2023-12-07T07:08:19;6.97;;;3.95;;
54835;SDS011;43486;43.574;1.476;2023-12-07T07:10:44;6.25;;;3.40;;
54835;SDS011;43486;43.574;1.476;2023-12-07T07:13:11;13.38;;;4.07;;
54835;SDS011;43486;43.574;1.476;2023-12-07T07:15:41;6.07;;;3.78;;
54835;SDS011;43486;43.574;1.476;2023-12-07T07:18:07;9.25;;;4.43;;
54835;SDS011;43486;43.574;1.476;2023-12-07T07:20:33;7.65;;;3.90;;
54835;SDS011;43486;43.574;1.476;2023-12-07T07:22:58;10.23;;;4.03;;
54835;SDS011;43486;43.574;1.476;2023-12-07T07:25:24;7.28;;;3.95;;
54835;SDS011;43486;43.574;1.476;2023-12-07T07:27:49;9.57;;;3.85;;
54835;SDS011;43486;43.574;1.476;2023-12-07T07:30:15;6.88;;;3.83;;
54835;SDS011;43486;43.574;1.476;2023-12-07T07:32:40;7.28;;;3.85;;
54835;SDS011;43486;43.574;1.476;2023-12-07T07:35:06;6.35;;;3.63;;
54835;SDS011;43486;43.574;1.476;2023-12-07T07:37:31;4.88;;;3.10;;
54835;SDS011;43486;43.574;1.476;2023-12-07T07:39:58;6.35;;;3.00;;
54835;SDS011;43486;43.574;1.476;2023-12-07T07:42:24;8.18;;;3.65;;
54835;SDS011;43486;43.574;1.476;2023-12-07T07:44:50;7.63;;;3.47;;
54835;SDS011;43486;43.574;1.476;2023-12-07T07:47:15;6.78;;;4.07;;
54835;SDS011;43486;43.574;1.476;2023-12-07T07:49:41;8.85;;;3.55;;
54835;SDS011;43486;43.574;1.476;2023-12-07T07:52:07;7.60;;;3.88;;
54835;SDS011;43486;43.574;1.476;2023-12-07T07:54:32;10.88;;;3.75;;
54835;SDS011;43486;43.574;1.476;2023-12-07T07:56:58;6.85;;;4.45;;
54835;SDS011;43486;43.574;1.476;2023-12-07T07:59:23;7.03;;;3.45;;
54835;SDS011;43486;43.574;1.476;2023-12-07T08:01:49;9.55;;;3.97;;
54835;SDS011;43486;43.574;1.476;2023-12-07T08:04:15;7.10;;;3.95;;
54835;SDS011;43486;43.574;1.476;2023-12-07T08:06:40;7.63;;;4.15;;
54835;SDS011;43486;43.574;1.476;2023-12-07T08:09:07;10.07;;;3.33;;
54835;SDS011;43486;43.574;1.476;2023-12-07T08:11:34;5.30;;;3.53;;
54835;SDS011;43486;43.574;1.476;2023-12-07T08:13:59;5.85;;;3.13;;
54835;SDS011;43486;43.574;1.476;2023-12-07T08:16:24;8.35;;;3.35;;
54835;SDS011;43486;43.574;1.476;2023-12-07T08:18:50;8.32;;;4.38;;
54835;SDS011;43486;43.574;1.476;2023-12-07T08:21:22;8.40;;;3.33;;
54835;SDS011;43486;43.574;1.476;2023-12-07T08:23:47;8.13;;;3.47;;
54835;SDS011;43486;43.574;1.476;2023-12-07T08:26:13;9.82;;;4.78;;
54835;SDS011;43486;43.574;1.476;2023-12-07T08:28:40;8.98;;;3.55;;
54835;SDS011;43486;43.574;1.476;2023-12-07T08:31:09;9.23;;;3.35;;
54835;SDS011;43486;43.574;1.476;2023-12-07T08:33:35;7.97;;;3.63;;
54835;SDS011;43486;43.574;1.476;2023-12-07T08:36:01;8.57;;;3.78;;
54835;SDS011;43486;43.574;1.476;2023-12-07T08:38:26;6.38;;;3.00;;
54835;SDS011;43486;43.574;1.476;2023-12-07T08:40:52;7.28;;;3.75;;
54835;SDS011;43486;43.574;1.476;2023-12-07T08:43:21;6.40;;;3.40;;
54835;SDS011;43486;43.574;1.476;2023-12-07T08:45:50;10.27;;;3.78;;
54835;SDS011;43486;43.574;1.476;2023-12-07T08:48:16;7.80;;;3.42;;
54835;SDS011;43486;43.574;1.476;2023-12-07T08:50:42;12.30;;;4.05;;
54835;SDS011;43486;43.574;1.476;2023-12-07T08:53:08;10.02;;;3.20;;
54835;SDS011;43486;43.574;1.476;2023-12-07T08:55:33;5.65;;;3.10;;
54835;SDS011;43486;43.574;1.476;2023-12-07T08:58:02;8.07;;;3.78;;
54835;SDS011;43486;43.574;1.476;2023-12-07T09:00:30;8.30;;;3.58;;
54835;SDS011;43486;43.574;1.476;2023-12-07T09:02:56;11.88;;;3.58;;
54835;SDS011;43486;43.574;1.476;2023-12-07T09:05:22;9.85;;;3.85;;
54835;SDS011;43486;43.574;1.476;2023-12-07T09:07:47;9.77;;;4.15;;
54835;SDS011;43486;43.574;1.476;2023-12-07T09:10:13;5.70;;;2.85;;
54835;SDS011;43486;43.574;1.476;2023-12-07T09:12:38;7.35;;;3.00;;
54835;SDS011;43486;43.574;1.476;2023-12-07T09:15:06;11.82;;;3.30;;
54835;SDS011;43486;43.574;1.476;2023-12-07T09:17:32;11.02;;;3.28;;
54835;SDS011;43486;43.574;1.476;2023-12-07T09:19:58;8.05;;;2.95;;
54835;SDS011;43486;43.574;1.476;2023-12-07T09:22:23;6.53;;;3.15;;
54835;SDS011;43486;43.574;1.476;2023-12-07T09:24:50;16.77;;;3.53;;
54835;SDS011;43486;43.574;1.476;2023-12-07T09:27:15;6.05;;;3.28;;
54835;SDS011;43486;43.574;1.476;2023-12-07T09:29:40;9.02;;;3.00;;
54835;SDS011;43486;43.574;1.476;2023-12-07T09:32:08;10.15;;;5.10;;
54835;SDS011;43486;43.574;1.476;2023-12-07T09:34:34;7.05;;;3.97;;
54835;SDS011;43486;43.574;1.476;2023-12-07T09:37:06;4.68;;;2.88;;
54835;SDS011;43486;43.574;1.476;2023-12-07T09:39:33;7.68;;;3.45;;
54835;SDS011;43486;43.574;1.476;2023-12-07T09:41:58;7.10;;;2.28;;
54835;SDS011;43486;43.574;1.476;2023-12-07T09:44:24;5.25;;;2.70;;
54835;SDS011;43486;43.574;1.476;2023-12-07T09:46:49;4.35;;;2.63;;
54835;SDS011;43486;43.574;1.476;2023-12-07T09:49:15;9.27;;;2.90;;
54835;SDS011;43486;43.574;1.476;2023-12-07T09:51:40;5.32;;;3.05;;
54835;SDS011;43486;43.574;1.476;2023-12-07T09:54:07;5.70;;;2.65;;
54835;SDS011;43486;43.574;1.476;2023-12-07T09:56:33;13.32;;;2.60;;
54835;SDS011;43486;43.574;1.476;2023-12-07T09:58:58;8.15;;;3.10;;
54835;SDS011;43486;43.574;1.476;2023-12-07T10:01:27;7.20;;;2.38;;
54835;SDS011;43486;43.574;1.476;2023-12-07T10:04:14;5.10;;;3.13;;
54835;SDS011;43486;43.574;1.476;2023-12-07T10:06:49;5.95;;;2.58;;
54835;SDS011;43486;43.574;1.476;2023-12-07T10:09:15;8.25;;;3.25;;
54835;SDS011;43486;43.574;1.476;2023-12-07T10:11:41;7.03;;;3.67;;
54835;SDS011;43486;43.574;1.476;2023-12-07T10:14:07;6.53;;;3.40;;
54835;SDS011;43486;43.574;1.476;2023-12-07T10:16:33;7.18;;;2.67;;
54835;SDS011;43486;43.574;1.476;2023-12-07T10:19:16;9.68;;;2.97;;
54835;SDS011;43486;43.574;1.476;2023-12-07T10:21:44;7.30;;;2.53;;
54835;SDS011;43486;43.574;1.476;2023-12-07T10:24:10;5.97;;;2.20;;
54835;SDS011;43486;43.574;1.476;2023-12-07T10:26:36;7.50;;;3.22;;
54835;SDS011;43486;43.574;1.476;2023-12-07T10:29:05;6.47;;;3.05;;
54835;SDS011;43486;43.574;1.476;2023-12-07T10:31:31;4.05;;;2.10;;
54835;SDS011;43486;43.574;1.476;2023-12-07T10:33:58;6.88;;;3.08;;
54835;SDS011;43486;43.574;1.476;2023-12-07T10:36:24;5.72;;;2.85;;
54835;SDS011;43486;43.574;1.476;2023-12-07T10:38:49;6.43;;;2.80;;
54835;SDS011;43486;43.574;1.476;2023-12-07T10:41:20;4.80;;;2.33;;
54835;SDS011;43486;43.574;1.476;2023-12-07T10:43:54;4.68;;;2.70;;
54835;SDS011;43486;43.574;1.476;2023-12-07T10:46:22;5.07;;;2.42;;
54835;SDS011;43486;43.574;1.476;2023-12-07T10:48:48;5.57;;;2.55;;
54835;SDS011;43486;43.574;1.476;2023-12-07T10:51:17;5.80;;;2.35;;
54835;SDS011;43486;43.574;1.476;2023-12-07T10:53:48;6.90;;;3.65;;
54835;SDS011;43486;43.574;1.476;2023-12-07T10:56:15;4.88;;;2.67;;
54835;SDS011;43486;43.574;1.476;2023-12-07T10:58:42;5.47;;;2.50;;
54835;SDS011;43486;43.574;1.476;2023-12-07T11:01:09;3.90;;;2.15;;
54835;SDS011;43486;43.574;1.476;2023-12-07T11:03:35;5.32;;;2.65;;
54835;SDS011;43486;43.574;1.476;2023-12-07T11:06:02;2.30;;;1.77;;
54835;SDS011;43486;43.574;1.476;2023-12-07T11:08:43;7.05;;;2.40;;
54835;SDS011;43486;43.574;1.476;2023-12-07T11:11:28;7.32;;;2.75;;
54835;SDS011;43486;43.574;1.476;2023-12-07T11:14:04;6.35;;;2.88;;
54835;SDS011;43486;43.574;1.476;2023-12-07T11:16:37;8.23;;;2.85;;
54835;SDS011;43486;43.574;1.476;2023-12-07T11:21:55;5.20;;;2.08;;
54835;SDS011;43486;43.574;1.476;2023-12-07T11:24:21;10.20;;;2.95;;
54835;SDS011;43486;43.574;1.476;2023-12-07T11:26:48;6.60;;;2.55;;
54835;SDS011;43486;43.574;1.476;2023-12-07T11:29:13;6.70;;;2.67;;
54835;SDS011;43486;43.574;1.476;2023-12-07T11:31:39;5.53;;;2.33;;
54835;SDS011;43486;43.574;1.476;2023-12-07T11:34:07;4.18;;;2.10;;
54835;SDS011;43486;43.574;1.476;2023-12-07T11:36:38;7.10;;;2.45;;
54835;SDS011;43486;43.574;1.476;2023-12-07T11:41:34;4.18;;;2.17;;
54835;SDS011;43486;43.574;1.476;2023-12-07T11:44:09;6.72;;;2.17;;
54835;SDS011;43486;43.574;1.476;2023-12-07T11:46:37;3.42;;;1.77;;
54835;SDS011;43486;43.574;1.476;2023-12-07T11:49:02;2.53;;;1.80;;
54835;SDS011;43486;43.574;1.476;2023-12-07T11:51:29;4.68;;;2.40;;
54835;SDS011;43486;43.574;1.476;2023-12-07T11:53:54;2.33;;;1.52;;
54835;SDS011;43486;43.574;1.476;2023-12-07T11:56:20;6.32;;;2.60;;
54835;SDS011;43486;43.574;1.476;2023-12-07T11:58:46;3.65;;;2.15;;
54835;SDS011;43486;43.574;1.476;2023-12-07T12:01:12;3.17;;;2.00;;
54835;SDS011;43486;43.574;1.476;2023-12-07T12:03:37;3.10;;;2.08;;
54835;SDS011;43486;43.574;1.476;2023-12-07T12:06:04;3.50;;;1.73;;
54835;SDS011;43486;43.574;1.476;2023-12-07T12:08:30;7.03;;;2.65;;
54835;SDS011;43486;43.574;1.476;2023-12-07T12:10:56;3.03;;;1.70;;
54835;SDS011;43486;43.574;1.476;2023-12-07T12:13:28;9.65;;;2.70;;
54835;SDS011;43486;43.574;1.476;2023-12-07T12:15:55;9.88;;;1.50;;
54835;SDS011;43486;43.574;1.476;2023-12-07T12:18:23;4.43;;;2.10;;
54835;SDS011;43486;43.574;1.476;2023-12-07T12:20:51;4.97;;;1.98;;
54835;SDS011;43486;43.574;1.476;2023-12-07T12:23:16;4.72;;;1.95;;
54835;SDS011;43486;43.574;1.476;2023-12-07T12:25:42;2.40;;;1.65;;
54835;SDS011;43486;43.574;1.476;2023-12-07T12:28:08;2.88;;;1.92;;
54835;SDS011;43486;43.574;1.476;2023-12-07T12:30:33;3.38;;;2.08;;
54835;SDS011;43486;43.574;1.476;2023-12-07T12:32:59;3.60;;;2.38;;
54835;SDS011;43486;43.574;1.476;2023-12-07T12:35:25;3.13;;;2.08;;
54835;SDS011;43486;43.574;1.476;2023-12-07T12:37:50;7.57;;;2.40;;
54835;SDS011;43486;43.574;1.476;2023-12-07T12:40:18;3.15;;;1.65;;
54835;SDS011;43486;43.574;1.476;2023-12-07T12:42:45;4.13;;;1.95;;
54835;SDS011;43486;43.574;1.476;2023-12-07T12:45:12;5.20;;;2.28;;
54835;SDS011;43486;43.574;1.476;2023-12-07T12:47:39;2.83;;;1.70;;
54835;SDS011;43486;43.574;1.476;2023-12-07T12:50:05;3.80;;;2.03;;
54835;SDS011;43486;43.574;1.476;2023-12-07T12:52:31;3.45;;;2.05;;
54835;SDS011;43486;43.574;1.476;2023-12-07T12:54:57;3.58;;;2.03;;
54835;SDS011;43486;43.574;1.476;2023-12-07T12:57:23;3.00;;;1.92;;
54835;SDS011;43486;43.574;1.476;2023-12-07T12:59:52;2.58;;;1.40;;
54835;SDS011;43486;43.574;1.476;2023-12-07T13:02:18;2.83;;;2.00;;
54835;SDS011;43486;43.574;1.476;2023-12-07T13:04:44;3.17;;;1.50;;
54835;SDS011;43486;43.574;1.476;2023-12-07T13:07:12;3.65;;;1.83;;
54835;SDS011;43486;43.574;1.476;2023-12-07T13:09:38;3.97;;;1.90;;
54835;SDS011;43486;43.574;1.476;2023-12-07T13:12:05;3.45;;;2.13;;
54835;SDS011;43486;43.574;1.476;2023-12-07T13:14:30;2.55;;;1.40;;
54835;SDS011;43486;43.574;1.476;2023-12-07T13:16:56;1.88;;;1.38;;
54835;SDS011;43486;43.574;1.476;2023-12-07T13:19:21;3.78;;;1.35;;
54835;SDS011;43486;43.574;1.476;2023-12-07T13:21:46;4.65;;;2.10;;
54835;SDS011;43486;43.574;1.476;2023-12-07T13:24:12;3.45;;;2.13;;
54835;SDS011;43486;43.574;1.476;2023-12-07T13:26:38;4.10;;;1.95;;
54835;SDS011;43486;43.574;1.476;2023-12-07T13:29:04;4.22;;;2.42;;
54835;SDS011;43486;43.574;1.476;2023-12-07T13:31:29;3.22;;;1.50;;
54835;SDS011;43486;43.574;1.476;2023-12-07T13:33:55;3.45;;;2.00;;
54835;SDS011;43486;43.574;1.476;2023-12-07T13:36:21;4.25;;;1.70;;
54835;SDS011;43486;43.574;1.476;2023-12-07T13:38:49;4.40;;;2.00;;
54835;SDS011;43486;43.574;1.476;2023-12-07T13:41:14;2.72;;;1.40;;
54835;SDS011;43486;43.574;1.476;2023-12-07T13:43:39;3.92;;;1.73;;
54835;SDS011;43486;43.574;1.476;2023-12-07T13:46:06;2.75;;;1.60;;
54835;SDS011;43486;43.574;1.476;2023-12-07T13:48:32;4.68;;;2.00;;
54835;SDS011;43486;43.574;1.476;2023-12-07T13:50:57;2.40;;;1.40;;
54835;SDS011;43486;43.574;1.476;2023-12-07T13:53:23;5.40;;;1.88;;
54835;SDS011;43486;43.574;1.476;2023-12-07T13:55:48;4.43;;;1.60;;
54835;SDS011;43486;43.574;1.476;2023-12-07T13:58:16;1.73;;;1.20;;
54835;SDS011;43486;43.574;1.476;2023-12-07T14:00:42;2.88;;;1.52;;
54835;SDS011;43486;43.574;1.476;2023-12-07T14:03:11;3.08;;;1.63;;
54835;SDS011;43486;43.574;1.476;2023-12-07T14:05:37;2.08;;;1.40;;
54835;SDS011;43486;43.574;1.476;2023-12-07T14:08:04;2.92;;;1.48;;
54835;SDS011;43486;43.574;1.476;2023-12-07T14:10:30;2.00;;;1.38;;
54835;SDS011;43486;43.574;1.476;2023-12-07T14:12:56;3.75;;;1.98;;
54835;SDS011;43486;43.574;1.476;2023-12-07T14:15:21;3.22;;;1.52;;
54835;SDS011;43486;43.574;1.476;2023-12-07T14:17:47;7.47;;;2.05;;
54835;SDS011;43486;43.574;1.476;2023-12-07T14:20:12;5.85;;;2.00;;
54835;SDS011;43486;43.574;1.476;2023-12-07T14:22:37;4.45;;;1.77;;
54835;SDS011;43486;43.574;1.476;2023-12-07T14:25:03;3.85;;;1.98;;
54835;SDS011;43486;43.574;1.476;2023-12-07T14:27:29;3.42;;;1.85;;
54835;SDS011;43486;43.574;1.476;2023-12-07T14:29:54;4.13;;;1.42;;
54835;SDS011;43486;43.574;1.476;2023-12-07T14:32:20;3.30;;;1.33;;
54835;SDS011;43486;43.574;1.476;2023-12-07T14:34:46;3.38;;;1.67;;
54835;SDS011;43486;43.574;1.476;2023-12-07T14:37:11;3.78;;;1.70;;
54835;SDS011;43486;43.574;1.476;2023-12-07T14:39:37;6.18;;;1.70;;
54835;SDS011;43486;43.574;1.476;2023-12-07T14:42:04;2.75;;;1.85;;
54835;SDS011;43486;43.574;1.476;2023-12-07T14:44:30;4.55;;;2.13;;
54835;SDS011;43486;43.574;1.476;2023-12-07T14:46:55;2.15;;;1.42;;
54835;SDS011;43486;43.574;1.476;2023-12-07T14:49:21;3.92;;;2.25;;
54835;SDS011;43486;43.574;1.476;2023-12-07T14:51:47;2.83;;;1.60;;